Latest Weather Observations for Wulungurru (Kintore)

IDD60801

Issued at 9:01 pm CST Thursday 22 June 2017 (issued every 30 minutes, with the page automatically refreshed every 10 minutes)

About weather observations | Map of weather stations | Latest weather observations for NT | Other Formats
Station Details ID: 015664 Name: WALUNGURRU AIRPORT Lat: -23.27 Lon: 129.38 Height: 454.3 m
Data from the previous 72 hours. | See also: Recent months at Wulungurru (Kintore)
Date/Time
CST
Temp
°C
App
Temp
°C
Dew
Point
°C
Rel
Hum
%
Delta-T
°C
Wind Press
QNH
hPa
Press
MSL
hPa
Rain since
9am
mm
Dir  Spd
km/h
Gust
km/h
Spd
kts
Gust
kts
22/09:00pm 17.3 14.1 2.9 38 6.7 SSE 9 11 5 6 1019.9 1019.6 0.0
22/08:30pm 17.8 14.2 2.9 37 7.0 SSE 11 13 6 7 1019.7 - 0.0
22/08:00pm 17.8 13.9 3.3 38 6.9 SSE 13 13 7 7 1019.4 - 0.0
22/07:30pm 18.0 14.0 3.1 37 7.1 SSE 13 13 7 7 1019.1 - 0.0
22/07:00pm 19.2 16.6 3.0 34 7.7 E 6 7 3 4 1018.8 - 0.0
22/06:30pm 21.5 18.2 2.2 28 9.2 NNE 9 9 5 5 1018.1 - 0.0
22/06:00pm 24.8 23.1 1.7 22 11.2 CALM 0 4 0 2 1018.0 1017.7 0.0
22/05:30pm 25.8 21.9 1.2 20 11.9 NNE 11 13 6 7 1017.7 - 0.0
22/05:00pm 26.2 23.1 1.5 20 12.1 NNW 7 13 4 7 1017.7 - 0.0
22/04:30pm 26.6 23.6 1.8 20 12.2 N 7 11 4 6 1017.7 - 0.0
22/04:00pm 26.6 22.8 1.8 20 12.2 NE 11 19 6 10 1017.7 - 0.0
22/03:30pm 26.6 23.6 1.1 19 12.4 ESE 6 9 3 5 1018.0 - 0.0
22/03:00pm 26.1 23.1 0.7 19 12.2 W 6 17 3 9 1018.4 1018.1 0.0
22/02:30pm 26.1 21.8 0.7 19 12.2 N 13 20 7 11 1018.8 - 0.0
22/02:00pm 26.0 21.6 0.6 19 12.2 NNE 13 20 7 11 1019.2 - 0.0
22/01:30pm 25.9 22.2 2.6 22 11.6 NNE 11 22 6 12 1019.8 - 0.0
22/01:00pm 24.9 20.1 2.4 23 11.1 NNE 17 24 9 13 1020.3 - 0.0
22/12:30pm 24.7 19.6 2.8 24 10.8 NNE 19 24 10 13 1020.8 - 0.0
22/12:00pm 24.1 18.5 3.4 26 10.3 NE 22 30 12 16 1021.3 1021.0 0.0
22/11:30am 23.4 17.3 2.8 26 10.1 NE 24 32 13 17 1021.8 - 0.0
22/11:00am 22.3 16.6 2.9 28 9.5 NE 22 30 12 16 1022.1 - 0.0
22/10:30am 21.4 16.1 3.1 30 8.9 NE 20 28 11 15 1022.4 - 0.0
22/10:00am 19.3 13.9 2.2 32 8.0 ENE 20 26 11 14 1022.4 - 0.0
22/09:30am 17.1 11.2 1.9 36 7.0 ENE 22 28 12 15 1022.2 - 0.0
22/09:00am 15.8 9.8 1.2 37 6.5 ENE 22 32 12 17 1022.0 1021.7 0.0
22/08:30am 15.4 9.7 0.8 37 6.5 ENE 20 26 11 14 1021.9 - 0.0
22/08:00am 14.5 9.4 0.7 39 6.0 E 17 20 9 11 1021.7 - 0.0
22/07:30am 14.0 8.5 0.6 40 5.8 E 19 22 10 12 1021.4 - 0.0
22/07:00am 14.3 9.2 0.5 39 6.0 E 17 24 9 13 1020.8 - 0.0
22/06:30am 14.2 8.7 0.5 39 6.0 E 19 26 10 14 1020.3 - 0.0
22/06:00am 14.8 8.7 0.3 37 6.3 E 22 30 12 16 1020.1 1019.8 0.0
22/05:30am 15.6 9.8 -0.2 34 6.9 E 20 30 11 16 1020.0 - 0.0
22/05:00am 15.8 10.0 -0.4 33 7.0 E 20 28 11 15 1019.9 - 0.0
22/04:30am 16.1 10.2 -0.6 32 7.2 E 20 28 11 15 1020.0 - 0.0
22/04:00am 16.1 11.6 -0.6 32 7.2 E 13 17 7 9 1020.1 - 0.0
22/03:30am 16.4 12.0 0.1 33 7.2 E 13 19 7 10 1020.0 - 0.0
22/03:00am 14.3 10.3 0.2 38 6.1 SE 11 13 6 7 1020.2 1019.9 0.0
22/02:30am 14.6 10.2 0.5 38 6.2 SSE 13 15 7 8 1020.3 - 0.0
22/02:00am 15.0 10.6 0.4 37 6.4 SSE 13 17 7 9 1020.3 - 0.0
22/01:30am 15.3 10.5 -0.1 35 6.7 SSE 15 17 8 9 1020.3 - 0.0
22/01:00am 14.8 10.4 0.3 37 6.3 S 13 15 7 8 1020.5 - 0.0
22/12:30am 14.3 11.0 -0.2 37 6.2 SE 7 9 4 5 1020.6 - 0.0
22/12:00am 15.0 11.0 0.4 37 6.4 SSE 11 11 6 6 1020.8 1020.6 0.0
 
Date/Time
CST
Temp
°C
App
Temp
°C
Dew
Point
°C
Rel
Hum
%
Delta-T
°C
Wind Press
QNH
hPa
Press
MSL
hPa
Rain since
9am
mm
Dir  Spd
km/h
Gust
km/h
Spd
kts
Gust
kts
21/11:30pm 15.0 10.7 0.8 38 6.3 SSE 13 15 7 8 1021.0 - 0.0
21/11:00pm 15.4 11.2 1.5 39 6.2 SSE 13 15 7 8 1021.0 - 0.0
21/10:30pm 14.5 10.6 1.4 41 5.8 SSE 11 13 6 7 1020.9 - 0.0
21/10:00pm 14.6 11.1 1.5 41 5.8 SSE 9 11 5 6 1020.8 - 0.0
21/09:30pm 14.9 11.5 1.8 41 5.9 SE 9 9 5 5 1020.8 - 0.0
21/09:00pm 15.3 11.9 1.8 40 6.1 SE 9 9 5 5 1020.7 1020.5 0.0
21/08:30pm 16.2 12.9 2.2 39 6.4 SSE 9 11 5 6 1020.6 - 0.0
21/08:00pm 16.8 13.0 2.0 37 6.8 E 11 13 6 7 1020.3 - 0.0
21/07:30pm 17.1 13.3 1.9 36 7.0 E 11 13 6 7 1020.2 - 0.0
21/07:00pm 17.7 14.3 2.1 35 7.2 E 9 11 5 6 1019.9 - 0.0
21/06:30pm 20.3 16.8 1.2 28 8.9 ENE 9 11 5 6 1019.6 - 0.0
21/06:00pm 23.5 20.3 0.6 22 10.8 ENE 7 11 4 6 1019.1 1018.8 0.0
21/05:30pm 24.7 21.1 0.3 20 11.5 ENE 9 15 5 8 1019.0 - 0.0
21/05:00pm 25.2 22.0 0.7 20 11.7 ENE 7 13 4 7 1019.1 - 0.0
21/04:30pm 25.4 22.1 0.1 19 12.0 ENE 7 13 4 7 1019.1 - 0.0
21/04:00pm 25.3 21.6 0.0 19 11.9 ENE 9 15 5 8 1019.2 - 0.0
21/03:30pm 25.7 22.1 0.4 19 12.1 E 9 13 5 7 1019.1 - 0.0
21/03:00pm 25.3 22.1 0.7 20 11.7 SSE 7 15 4 8 1019.4 1019.1 0.0
21/02:30pm 25.1 21.5 0.6 20 11.7 ESE 9 15 5 8 1019.6 - 0.0
21/02:00pm 25.3 20.8 0.0 19 11.9 NNE 13 20 7 11 1019.9 - 0.0
21/01:30pm 24.4 19.9 0.0 20 11.4 NE 13 24 7 13 1020.3 - 0.0
21/01:00pm 24.3 19.1 -0.1 20 11.4 NE 17 24 9 13 1020.6 - 0.0
21/12:30pm 23.6 17.9 0.7 22 10.8 NE 20 28 11 15 1021.3 - 0.0
21/12:00pm 22.5 16.9 0.9 24 10.1 NE 20 32 11 17 1022.0 1021.7 0.0
21/11:30am 21.8 15.4 0.9 25 9.8 NE 24 30 13 16 1022.5 - 0.0
21/11:00am 21.0 14.4 1.8 28 9.1 ENE 26 32 14 17 1022.7 - 0.0
21/10:30am 19.3 12.1 0.8 29 8.5 ENE 28 35 15 19 1022.8 - 0.0
21/10:00am 18.3 11.6 1.3 32 7.8 ENE 26 32 14 17 1022.7 - 0.0
21/09:30am 16.4 8.9 1.3 36 6.8 ENE 30 37 16 20 1022.6 - 0.0
21/09:00am 14.9 7.4 1.1 39 6.1 ENE 30 39 16 21 1022.3 1022.0 0.0
21/08:30am 13.8 7.0 0.8 41 5.7 ENE 26 35 14 19 1022.1 - 0.0
21/08:00am 12.6 5.4 0.4 43 5.2 ENE 28 35 15 19 1021.9 - 0.0
21/07:30am 12.3 5.0 0.1 43 5.2 ENE 28 39 15 21 1021.6 - 0.0
21/07:00am 12.9 5.1 -0.7 39 5.7 ENE 30 39 16 21 1021.2 - 0.0
21/06:30am 13.8 6.0 -0.6 37 6.1 ENE 30 39 16 21 1020.9 - 0.0
21/06:00am 14.2 6.3 -1.4 34 6.5 ENE 30 39 16 21 1020.6 1020.4 0.0
21/05:30am 14.5 7.0 -1.6 33 6.7 ENE 28 37 15 20 1020.5 - 0.0
21/05:00am 15.1 7.5 -1.9 31 7.1 E 28 37 15 20 1020.4 - 0.0
21/04:30am 15.6 8.1 -1.4 31 7.2 E 28 35 15 19 1020.4 - 0.0
21/04:00am 16.3 9.1 -1.7 29 7.6 E 26 35 14 19 1020.4 - 0.0
21/03:30am 16.6 10.6 -1.5 29 7.7 E 20 28 11 15 1020.5 - 0.0
21/03:00am 16.6 11.6 -1.0 30 7.6 E 15 22 8 12 1020.6 1020.4 0.0
21/02:30am 17.1 11.2 -0.6 30 7.7 E 20 28 11 15 1020.7 - 0.0
21/02:00am 14.9 10.6 -1.6 32 6.9 SE 11 19 6 10 1021.0 - 0.0
21/01:30am 17.7 11.4 -1.0 28 8.1 ESE 22 32 12 17 1020.9 - 0.0
21/01:00am 18.0 11.7 -0.8 28 8.2 ESE 22 32 12 17 1021.0 - 0.0
21/12:30am 17.9 10.9 -0.8 28 8.2 ESE 26 37 14 20 1021.0 - 0.0
21/12:00am 17.1 10.5 -0.1 31 7.6 SE 24 32 13 17 1021.2 1020.9 0.0
 
Date/Time
CST
Temp
°C
App
Temp
°C
Dew
Point
°C
Rel
Hum
%
Delta-T
°C
Wind Press
QNH
hPa
Press
MSL
hPa
Rain since
9am
mm
Dir  Spd
km/h
Gust
km/h
Spd
kts
Gust
kts
20/11:30pm 17.3 10.5 0.5 32 7.5 SE 26 35 14 19 1021.3 - 0.0
20/11:00pm 17.7 10.9 0.8 32 7.6 SE 26 35 14 19 1021.4 - 0.0
20/10:30pm 17.4 10.6 1.0 33 7.4 SE 26 32 14 17 1021.4 - 0.0
20/10:00pm 18.1 11.7 1.2 32 7.7 SE 24 33 13 18 1021.5 - 0.0
20/09:30pm 18.5 13.3 2.4 34 7.6 SE 19 28 10 15 1021.6 - 0.0
20/09:00pm 17.9 13.3 1.8 34 7.4 SSE 15 17 8 9 1021.4 1021.1 0.0
20/08:30pm 19.4 14.5 1.9 31 8.2 SE 17 20 9 11 1020.9 - 0.0
20/08:00pm 17.6 14.0 3.1 38 6.9 SE 11 15 6 8 1020.6 - 0.0
20/07:30pm 16.9 13.3 3.2 40 6.5 SE 11 13 6 7 1020.3 - 0.0
20/07:00pm 18.2 15.0 2.9 36 7.2 SE 9 9 5 5 1020.1 - 0.0
20/06:30pm 19.7 16.3 2.1 31 8.3 SE 9 9 5 5 1019.9 - 0.0
20/06:00pm 21.9 18.5 2.1 27 9.5 ESE 9 11 5 6 1019.6 1019.3 0.0
20/05:30pm 23.4 20.1 2.3 25 10.2 SSE 9 15 5 8 1019.4 - 0.0
20/05:00pm 24.1 20.4 2.3 24 10.6 ESE 11 19 6 10 1019.2 - 0.0
20/04:30pm 24.3 20.9 1.9 23 10.9 SE 9 13 5 7 1019.1 - 0.0
20/04:00pm 25.2 22.5 2.6 23 11.2 E 6 11 3 6 1019.1 - 0.0
20/03:30pm 24.3 20.1 1.9 23 10.9 NE 13 17 7 9 1019.3 - 0.0
20/03:00pm 24.7 21.7 2.2 23 11.0 NNW 7 15 4 8 1019.6 1019.3 0.0
20/02:30pm 24.3 21.4 2.5 24 10.7 N 7 17 4 9 1019.9 - 0.0
20/02:00pm 24.5 21.2 2.6 24 10.8 NNE 9 13 5 7 1020.1 - 0.0
20/01:30pm 24.0 19.9 2.2 24 10.6 NE 13 19 7 10 1020.7 - 0.0
20/01:00pm 23.2 18.7 2.1 25 10.2 ENE 15 20 8 11 1021.3 - 0.0
20/12:30pm 22.4 17.5 2.0 26 9.8 NE 17 28 9 15 1021.7 - 0.0
20/12:00pm 21.6 16.2 1.3 26 9.5 ENE 19 26 10 14 1022.2 1021.9 0.0
20/11:30am 21.0 14.7 1.3 27 9.2 NE 24 32 13 17 1022.3 - 0.0
20/11:00am 19.5 12.3 1.0 29 8.5 ENE 28 35 15 19 1022.5 - 0.0
20/10:30am 18.6 11.1 1.2 31 8.0 ENE 30 39 16 21 1022.6 - 0.0
20/10:00am 17.8 10.7 1.3 33 7.5 ENE 28 39 15 21 1022.6 - 0.0
20/09:30am 16.1 8.6 1.4 37 6.6 ENE 30 39 16 21 1022.4 - 0.0
20/09:00am 14.0 7.4 2.0 44 5.4 ENE 26 33 14 18 1022.1 1021.8 0.0
20/08:30am 12.8 5.8 1.8 47 4.9 ENE 28 39 15 21 1021.7 - 0.0
20/08:00am 12.4 5.4 1.7 48 4.7 ENE 28 37 15 20 1021.5 - 0.0
20/07:30am 12.4 5.7 1.7 48 4.7 ENE 26 39 14 21 1021.3 - 0.0
20/07:00am 12.7 5.7 1.7 47 4.8 ENE 28 39 15 21 1020.9 - 0.0
20/06:30am 13.2 5.7 1.5 45 5.2 E 30 39 16 21 1020.7 - 0.0
20/06:00am 13.3 6.2 1.6 45 5.2 E 28 37 15 20 1020.5 1020.3 0.0
20/05:30am 13.6 6.9 1.6 44 5.3 E 26 35 14 19 1020.6 - 0.0
20/05:00am 14.1 6.7 1.7 43 5.5 E 30 41 16 22 1020.7 - 0.0
20/04:30am 14.4 7.0 1.7 42 5.7 E 30 41 16 22 1020.6 - 0.0
20/04:00am 14.8 7.7 1.3 40 6.0 E 28 39 15 21 1020.6 - 0.0
20/03:30am 15.4 8.3 1.2 38 6.3 E 28 39 15 21 1020.8 - 0.0
20/03:00am 15.8 9.4 1.2 37 6.5 E 24 39 13 21 1020.8 1020.6 0.0
20/02:30am 16.0 9.2 1.0 36 6.7 E 26 37 14 20 1020.8 - 0.0
20/02:00am 15.9 8.4 0.9 36 6.7 E 30 41 16 22 1021.0 - 0.0
20/01:30am 16.5 9.7 0.6 34 7.1 E 26 39 14 21 1021.3 - 0.0
20/01:00am 16.3 11.7 1.6 37 6.7 ESE 15 24 8 13 1021.5 - 0.0
20/12:30am 15.0 9.1 1.9 41 5.9 SE 22 32 12 17 1021.6 - 0.0
20/12:00am 14.2 8.9 1.8 43 5.5 SSE 19 26 10 14 1021.8 1021.5 0.0
 
Date/Time
CST
Temp
°C
App
Temp
°C
Dew
Point
°C
Rel
Hum
%
Delta-T
°C
Wind Press
QNH
hPa
Press
MSL
hPa
Rain since
9am
mm
Dir  Spd
km/h
Gust
km/h
Spd
kts
Gust
kts
19/11:30pm 15.9 9.2 1.6 38 6.5 SE 26 35 14 19 1021.9 - 0.0
19/11:00pm 16.2 9.6 1.9 38 6.5 SE 26 35 14 19 1021.7 - 0.0
19/10:30pm 16.7 10.1 2.0 37 6.7 SE 26 35 14 19 1021.9 - 0.0
19/10:00pm 16.0 10.6 1.3 37 6.6 SSE 19 24 10 13 1021.9 - 0.0
19/09:30pm 15.7 11.4 0.7 36 6.6 SE 13 17 7 9 1021.9 - 0.0

Other Formats:

Comma delimited format used in spreadsheet applications
http://www.bom.gov.au/fwo/IDD60801/IDD60801.94321.axf

JavaScript Object Notation format (JSON) in row-major order
http://www.bom.gov.au/fwo/IDD60801/IDD60801.94321.json